createdAt,value
2023-04-05T00:00:48.654Z,10.10
2023-04-05T00:03:18.912Z,9.75
2023-04-05T00:05:50.313Z,11.93
2023-04-05T00:08:28.611Z,12.65
2023-04-05T00:10:58.744Z,12.50
2023-04-05T00:13:28.919Z,13.95
2023-04-05T00:16:01.446Z,15.30
2023-04-05T00:18:34.378Z,15.13
2023-04-05T00:21:05.345Z,15.90
2023-04-05T00:23:39.938Z,11.70
2023-04-05T00:26:09.942Z,12.63
2023-04-05T00:28:38.356Z,10.80
2023-04-05T00:31:10.582Z,14.32
2023-04-05T00:33:41.171Z,11.25
2023-04-05T00:36:14.783Z,12.75
2023-04-05T00:38:48.152Z,14.02
2023-04-05T00:41:18.509Z,13.23
2023-04-05T00:43:49.667Z,9.85
2023-04-05T00:46:20.456Z,9.90
2023-04-05T00:48:50.850Z,12.18
2023-04-05T00:51:21.420Z,13.27
2023-04-05T00:53:53.403Z,11.23
2023-04-05T00:56:24.583Z,11.32
2023-04-05T00:58:54.807Z,12.30
2023-04-05T01:01:28.204Z,12.43
2023-04-05T01:04:03.904Z,11.88
2023-04-05T01:07:19.948Z,13.27
2023-04-05T01:10:05.643Z,10.60
2023-04-05T01:12:38.860Z,9.02
2023-04-05T01:15:11.184Z,11.13
2023-04-05T01:17:42.295Z,10.43
2023-04-05T01:20:15.297Z,13.88
2023-04-05T01:23:31.464Z,12.93
2023-04-05T01:26:52.695Z,11.75
2023-04-05T01:33:10.978Z,12.82
2023-04-05T01:36:08.720Z,12.48
2023-04-05T01:38:43.821Z,12.65
2023-04-05T01:41:15.464Z,10.40
2023-04-05T01:43:46.855Z,12.38
2023-04-05T01:46:17.127Z,12.50
2023-04-05T01:48:47.239Z,12.50
2023-04-05T01:51:17.399Z,10.68
2023-04-05T01:53:47.635Z,11.93
2023-04-05T01:56:17.819Z,16.92
2023-04-05T01:58:47.727Z,14.32
2023-04-05T02:01:17.540Z,12.52
2023-04-05T02:03:47.591Z,12.40
2023-04-05T02:06:17.342Z,10.88
2023-04-05T02:08:47.103Z,11.88
2023-04-05T02:11:16.836Z,16.10
2023-04-05T02:13:47.150Z,15.80
2023-04-05T02:16:18.640Z,14.98
2023-04-05T02:18:51.161Z,13.30
2023-04-05T02:21:21.989Z,14.00
2023-04-05T02:23:53.907Z,11.00
2023-04-05T02:26:24.003Z,17.05
2023-04-05T02:28:54.528Z,10.80
2023-04-05T02:31:23.856Z,13.65
2023-04-05T02:33:54.388Z,12.30
2023-04-05T02:36:24.496Z,17.23
2023-04-05T02:38:55.490Z,10.55
2023-04-05T02:41:26.199Z,15.48
2023-04-05T02:43:56.352Z,16.60
2023-04-05T02:46:26.473Z,12.63
2023-04-05T02:48:56.226Z,14.07
2023-04-05T02:51:27.162Z,13.18
2023-04-05T02:53:57.265Z,13.55
2023-04-05T02:56:27.061Z,19.52
2023-04-05T02:58:57.003Z,13.20
2023-04-05T03:01:28.094Z,12.55
2023-04-05T03:03:57.059Z,16.58
2023-04-05T03:06:27.754Z,13.35
2023-04-05T03:08:56.836Z,19.27
2023-04-05T03:11:26.967Z,13.27
2023-04-05T03:13:57.258Z,9.52
2023-04-05T03:16:27.622Z,14.05
2023-04-05T03:18:57.323Z,11.50
2023-04-05T03:21:30.112Z,14.68
2023-04-05T03:23:57.329Z,14.90
2023-04-05T03:26:27.789Z,15.30
2023-04-05T03:28:56.965Z,9.75
2023-04-05T03:31:26.713Z,10.70
2023-04-05T03:33:57.124Z,13.23
2023-04-05T03:36:30.742Z,10.10
2023-04-05T03:38:59.010Z,13.13
2023-04-05T03:41:27.238Z,12.18
2023-04-05T03:43:55.549Z,10.75
2023-04-05T03:46:23.940Z,11.80
2023-04-05T03:48:52.465Z,11.60
2023-04-05T03:51:21.057Z,10.38
2023-04-05T03:53:51.608Z,11.90
2023-04-05T03:56:21.134Z,11.18
2023-04-05T03:58:49.394Z,9.35
2023-04-05T04:01:18.561Z,13.50
2023-04-05T04:03:46.070Z,15.13
2023-04-05T04:06:16.468Z,14.23
2023-04-05T04:08:48.848Z,14.93
2023-04-05T04:11:18.974Z,13.70
2023-04-05T04:13:49.070Z,11.48
2023-04-05T04:16:19.458Z,20.00
2023-04-05T04:18:49.702Z,12.98
2023-04-05T04:21:21.551Z,18.10
2023-04-05T04:23:53.190Z,14.43
2023-04-05T04:26:29.325Z,17.52
2023-04-05T04:28:58.524Z,15.43
2023-04-05T04:31:27.697Z,14.95
2023-04-05T04:33:55.642Z,15.43
2023-04-05T04:36:34.820Z,20.40
2023-04-05T04:39:05.908Z,14.48
2023-04-05T04:41:38.386Z,19.33
2023-04-05T04:44:08.518Z,13.02
2023-04-05T04:46:43.445Z,10.80
2023-04-05T04:49:13.636Z,9.55
2023-04-05T04:51:43.790Z,13.73
2023-04-05T04:54:13.874Z,12.77
2023-04-05T04:56:43.961Z,15.45
2023-04-05T04:59:14.304Z,12.85
2023-04-05T05:01:47.577Z,16.10
2023-04-05T05:04:17.803Z,10.93
2023-04-05T05:06:53.846Z,14.85
2023-04-05T05:09:22.670Z,14.25
2023-04-05T05:11:52.816Z,16.60
2023-04-05T05:14:22.917Z,14.80
2023-04-05T05:16:54.820Z,11.73
2023-04-05T05:19:24.137Z,13.07
2023-04-05T05:21:54.425Z,15.57
2023-04-05T05:24:24.677Z,13.80
2023-04-05T05:26:54.745Z,14.38
2023-04-05T05:29:24.896Z,17.15
2023-04-05T05:31:55.685Z,14.95
2023-04-05T05:34:25.849Z,17.65
2023-04-05T05:36:58.289Z,20.70
2023-04-05T05:39:25.736Z,20.67
2023-04-05T05:41:55.968Z,17.00
2023-04-05T05:44:26.104Z,16.73
2023-04-05T05:46:56.872Z,16.90
2023-04-05T05:49:26.702Z,15.02
2023-04-05T05:51:57.568Z,10.70
2023-04-05T05:54:27.657Z,9.85
2023-04-05T05:56:59.125Z,13.27
2023-04-05T05:59:28.809Z,12.35
2023-04-05T06:01:58.832Z,10.02
2023-04-05T06:04:29.215Z,12.57
2023-04-05T06:06:59.252Z,14.02
2023-04-05T06:09:29.458Z,10.60
2023-04-05T06:11:59.556Z,7.00
2023-04-05T06:14:30.102Z,9.95
2023-04-05T06:17:00.046Z,7.82
2023-04-05T06:19:30.381Z,14.38
2023-04-05T06:22:01.382Z,10.55
2023-04-05T06:24:32.226Z,12.65
2023-04-05T06:27:01.436Z,11.88
2023-04-05T06:29:31.585Z,17.77
2023-04-05T06:32:05.496Z,16.25
2023-04-05T06:34:34.913Z,11.73
2023-04-05T06:37:02.983Z,12.52
2023-04-05T06:39:30.682Z,13.85
2023-04-05T06:41:59.017Z,10.23
2023-04-05T06:44:27.475Z,10.55
2023-04-05T06:46:55.799Z,10.30
2023-04-05T06:49:24.282Z,14.98
2023-04-05T06:51:52.669Z,12.85
2023-04-05T06:54:23.297Z,10.90
2023-04-05T06:56:52.424Z,12.18
2023-04-05T06:59:21.554Z,10.45
2023-04-05T07:01:49.419Z,11.05
2023-04-05T07:04:17.763Z,12.20
2023-04-05T07:06:46.521Z,13.55
2023-04-05T07:09:14.539Z,16.13
2023-04-05T07:11:41.686Z,10.07
2023-04-05T07:14:11.807Z,11.82
2023-04-05T07:16:41.957Z,11.27
2023-04-05T07:19:12.109Z,14.90
2023-04-05T07:21:43.022Z,13.63
2023-04-05T07:24:13.121Z,11.93
2023-04-05T07:26:43.281Z,10.25
2023-04-05T07:29:13.658Z,12.80
2023-04-05T07:31:43.972Z,15.45
2023-04-05T07:34:14.393Z,12.00
2023-04-05T07:36:44.161Z,11.65
2023-04-05T07:39:14.266Z,16.10
2023-04-05T07:41:44.339Z,15.23
2023-04-05T07:44:14.419Z,12.70
2023-04-05T07:46:47.628Z,19.38
2023-04-05T07:49:19.204Z,10.95
2023-04-05T07:51:49.546Z,13.85
2023-04-05T07:54:19.635Z,12.63
2023-04-05T07:56:51.950Z,12.85
2023-04-05T07:59:22.321Z,16.42
2023-04-05T08:01:53.898Z,19.65
2023-04-05T08:04:27.065Z,12.50
2023-04-05T08:06:57.168Z,14.18
2023-04-05T08:09:27.302Z,17.90
2023-04-05T08:11:57.842Z,11.90
2023-04-05T08:14:27.934Z,14.38
2023-04-05T08:16:58.018Z,13.50
2023-04-05T08:19:28.299Z,21.70
2023-04-05T08:21:58.426Z,15.82
2023-04-05T08:24:28.606Z,11.73
2023-04-05T08:26:58.768Z,13.88
2023-04-05T08:29:28.955Z,13.05
2023-04-05T08:31:59.224Z,11.65
2023-04-05T08:34:29.383Z,14.85
2023-04-05T08:37:00.771Z,14.85
2023-04-05T08:39:31.240Z,10.88
2023-04-05T08:42:17.261Z,13.95
2023-04-05T08:44:53.011Z,14.43
2023-04-05T08:47:24.555Z,14.10
2023-04-05T08:49:55.817Z,11.88
2023-04-05T08:52:26.994Z,13.27
2023-04-05T08:54:57.289Z,12.65
2023-04-05T08:57:33.034Z,14.88
2023-04-05T09:00:05.391Z,12.30
2023-04-05T09:02:38.071Z,17.67
2023-04-05T09:05:11.880Z,13.90
2023-04-05T09:07:48.055Z,13.15
2023-04-05T09:10:21.396Z,12.60
2023-04-05T09:12:53.206Z,12.90
2023-04-05T09:15:27.066Z,15.50
2023-04-05T09:17:58.114Z,11.50
2023-04-05T09:20:28.459Z,15.23
2023-04-05T09:22:58.846Z,10.90
2023-04-05T09:25:39.467Z,10.98
2023-04-05T09:28:08.946Z,9.68
2023-04-05T09:30:38.982Z,17.67
2023-04-05T09:33:10.642Z,13.00
2023-04-05T09:35:41.256Z,12.35
2023-04-05T09:38:11.423Z,13.85
2023-04-05T09:41:08.706Z,10.60
2023-04-05T09:43:42.860Z,13.50
2023-04-05T09:46:39.565Z,9.80
2023-04-05T09:49:10.449Z,10.52
2023-04-05T09:51:40.693Z,11.07
2023-04-05T09:54:12.216Z,11.90
2023-04-05T09:56:57.837Z,8.38
2023-04-05T09:59:29.506Z,13.35
2023-04-05T10:01:59.640Z,12.82
2023-04-05T10:04:47.011Z,13.48
2023-04-05T10:07:20.514Z,12.70
2023-04-05T10:09:50.740Z,12.90
2023-04-05T10:12:28.856Z,12.40
2023-04-05T10:15:00.202Z,9.50
2023-04-05T10:18:07.693Z,16.65
2023-04-05T10:20:47.810Z,16.02
2023-04-05T10:23:33.814Z,11.45
2023-04-05T10:27:04.625Z,9.07
2023-04-05T10:30:09.342Z,10.10
2023-04-05T10:33:25.130Z,11.20
2023-04-05T10:36:16.708Z,13.63
2023-04-05T10:39:25.890Z,9.15
2023-04-05T10:42:15.344Z,9.77
2023-04-05T10:44:53.319Z,12.48
2023-04-05T10:47:30.399Z,11.27
2023-04-05T10:50:12.588Z,12.55
2023-04-05T10:52:47.380Z,9.05
2023-04-05T10:55:18.330Z,8.80
2023-04-05T10:57:51.249Z,11.30
2023-04-05T11:00:24.716Z,10.23
2023-04-05T11:02:57.225Z,10.55
2023-04-05T11:05:37.956Z,13.20
2023-04-05T11:08:12.743Z,11.63
2023-04-05T11:10:43.310Z,13.63
2023-04-05T11:13:12.409Z,10.15
2023-04-05T11:15:42.608Z,13.23
2023-04-05T11:18:18.188Z,9.48
2023-04-05T11:21:07.730Z,12.65
2023-04-05T11:24:09.744Z,11.27
2023-04-05T11:26:56.164Z,7.00
2023-04-05T11:29:51.985Z,7.13
2023-04-05T11:32:23.566Z,10.88
2023-04-05T11:35:14.657Z,11.02
2023-04-05T11:38:10.329Z,11.30
2023-04-05T11:40:41.160Z,6.90
2023-04-05T11:43:12.642Z,9.57
2023-04-05T11:45:43.648Z,7.32
2023-04-05T11:48:15.521Z,10.40
2023-04-05T11:50:51.359Z,15.43
2023-04-05T11:53:21.603Z,13.50
2023-04-05T11:55:52.758Z,10.40
2023-04-05T11:58:26.030Z,9.30
2023-04-05T12:01:02.017Z,9.18
2023-04-05T12:03:32.376Z,14.98
2023-04-05T12:06:07.898Z,8.75
2023-04-05T12:08:50.264Z,8.93
2023-04-05T12:11:32.098Z,9.25
2023-04-05T12:14:03.168Z,9.73
2023-04-05T12:16:33.293Z,12.82
2023-04-05T12:19:03.560Z,10.25
2023-04-05T12:21:34.087Z,12.27
2023-04-05T12:24:04.790Z,9.18
2023-04-05T12:26:38.859Z,9.90
2023-04-05T12:29:09.040Z,10.77
2023-04-05T12:31:47.168Z,11.60
2023-04-05T12:34:27.981Z,7.82
2023-04-05T12:37:03.290Z,10.95
2023-04-05T12:39:34.322Z,11.25
2023-04-05T12:42:06.736Z,7.90
2023-04-05T12:44:37.392Z,8.40
2023-04-05T12:47:11.296Z,9.30
2023-04-05T12:49:41.415Z,7.53
2023-04-05T12:52:20.419Z,10.23
2023-04-05T12:54:56.800Z,10.50
2023-04-05T12:57:33.440Z,7.22
2023-04-05T13:00:04.606Z,6.72
2023-04-05T13:02:34.824Z,8.10
2023-04-05T13:05:05.662Z,9.38
2023-04-05T13:07:33.412Z,9.32
2023-04-05T13:10:01.894Z,14.02
2023-04-05T13:12:30.534Z,9.65
2023-04-05T13:14:58.674Z,10.73
2023-04-05T13:17:27.263Z,7.78
2023-04-05T13:19:55.616Z,7.78
2023-04-05T13:22:23.995Z,8.57
2023-04-05T13:24:54.045Z,8.32
2023-04-05T13:27:23.939Z,8.60
2023-04-05T13:29:52.321Z,9.43
2023-04-05T13:32:20.809Z,8.57
2023-04-05T13:34:49.211Z,9.30
2023-04-05T13:37:17.672Z,9.95
2023-04-05T13:39:46.084Z,9.32
2023-04-05T13:42:20.655Z,7.95
2023-04-05T13:44:51.451Z,7.97
2023-04-05T13:47:21.566Z,10.85
2023-04-05T13:49:51.701Z,8.70
2023-04-05T13:52:21.930Z,7.03
2023-04-05T13:55:03.475Z,6.78
2023-04-05T13:57:34.043Z,11.20
2023-04-05T14:00:02.775Z,7.05
2023-04-05T14:02:31.079Z,7.13
2023-04-05T14:04:59.323Z,7.35
2023-04-05T14:07:29.071Z,8.70
2023-04-05T14:09:59.211Z,8.38
2023-04-05T14:12:27.815Z,4.75
2023-04-05T14:14:56.073Z,7.20
2023-04-05T14:17:24.683Z,9.82
2023-04-05T14:19:52.944Z,11.45
2023-04-05T14:22:21.886Z,7.32
2023-04-05T14:24:49.786Z,9.27
2023-04-05T14:27:18.260Z,7.03
2023-04-05T14:29:46.634Z,7.70
2023-04-05T14:32:15.085Z,6.18
2023-04-05T14:34:43.469Z,8.52
2023-04-05T14:37:11.969Z,9.15
2023-04-05T14:39:40.293Z,8.52
2023-04-05T14:42:13.888Z,6.65
2023-04-05T14:44:44.244Z,6.75
2023-04-05T14:47:14.421Z,5.85
2023-04-05T14:49:44.627Z,9.32
2023-04-05T14:52:15.076Z,6.22
2023-04-05T14:54:45.523Z,7.82
2023-04-05T14:57:16.305Z,6.55
2023-04-05T14:59:46.494Z,10.10
2023-04-05T15:02:16.833Z,10.05
2023-04-05T15:04:47.116Z,7.00
2023-04-05T15:07:17.246Z,7.18
2023-04-05T15:09:48.753Z,7.45
2023-04-05T15:12:19.508Z,8.93
2023-04-05T15:14:51.026Z,11.15
2023-04-05T15:17:22.223Z,6.88
2023-04-05T15:19:52.627Z,8.73
2023-04-05T15:22:23.771Z,8.73
2023-04-05T15:24:56.193Z,6.93
2023-04-05T15:27:26.408Z,5.93
2023-04-05T15:29:56.579Z,7.82
2023-04-05T15:37:00.533Z,5.13
2023-04-05T15:39:30.813Z,6.18
2023-04-05T15:42:03.500Z,6.10
2023-04-05T15:44:33.811Z,8.85
2023-04-05T15:47:04.194Z,6.65
2023-04-05T15:49:34.348Z,8.45
2023-04-05T15:52:04.737Z,7.75
2023-04-05T15:54:34.862Z,7.72
2023-04-05T15:57:05.243Z,7.97
2023-04-05T15:59:35.494Z,7.50
2023-04-05T16:02:06.273Z,9.43
2023-04-05T16:04:36.594Z,13.32
2023-04-05T16:07:07.968Z,7.45
2023-04-05T16:09:38.167Z,10.23
2023-04-05T16:12:14.301Z,7.68
2023-04-05T16:19:18.241Z,9.02
2023-04-05T16:21:48.542Z,7.80
2023-04-05T16:24:20.010Z,6.22
2023-04-05T16:26:50.289Z,7.22
2023-04-05T16:29:20.809Z,8.10
2023-04-05T16:31:51.346Z,6.07
2023-04-05T16:34:22.080Z,8.10
2023-04-05T16:36:52.860Z,9.75
2023-04-05T16:39:23.213Z,7.32
2023-04-05T16:41:54.453Z,7.05
2023-04-05T16:44:24.683Z,8.10
2023-04-05T16:46:54.851Z,7.40
2023-04-05T16:49:25.036Z,8.10
2023-04-05T16:51:55.407Z,7.15
2023-04-05T16:54:25.927Z,9.13
2023-04-05T16:56:56.611Z,6.80
2023-04-05T16:59:26.828Z,9.98
2023-04-05T17:01:57.056Z,6.88
2023-04-05T17:04:27.537Z,5.40
2023-04-05T17:06:58.282Z,8.60
2023-04-05T17:09:29.436Z,8.43
2023-04-05T17:11:59.618Z,7.70
2023-04-05T17:14:31.268Z,7.20
2023-04-05T17:17:01.496Z,6.47
2023-04-05T17:19:32.921Z,6.68
2023-04-05T17:22:03.232Z,8.02
2023-04-05T17:24:38.133Z,8.35
2023-04-05T17:27:08.400Z,6.60
2023-04-05T17:29:39.516Z,6.85
2023-04-05T17:32:07.607Z,5.75
2023-04-05T17:34:35.517Z,8.20
2023-04-05T17:37:03.939Z,10.38
2023-04-05T17:39:32.386Z,6.93
2023-04-05T17:42:00.885Z,6.22
2023-04-05T17:44:30.571Z,10.15
2023-04-05T17:47:08.435Z,8.48
2023-04-05T17:49:39.715Z,8.02
2023-04-05T17:52:09.997Z,10.60
2023-04-05T17:54:40.285Z,9.88
2023-04-05T17:57:15.769Z,9.43
2023-04-05T17:59:46.257Z,9.63
2023-04-05T18:02:16.716Z,7.75
2023-04-05T18:04:47.130Z,9.38
2023-04-05T18:07:17.314Z,9.25
2023-04-05T18:09:45.945Z,8.20
2023-04-05T18:12:18.528Z,8.30
2023-04-05T18:14:48.867Z,9.98
2023-04-05T18:17:20.274Z,10.00
2023-04-05T18:19:50.920Z,11.80
2023-04-05T18:22:21.297Z,8.65
2023-04-05T18:24:51.488Z,8.45
2023-04-05T18:27:22.106Z,10.90
2023-04-05T18:29:50.086Z,10.88
2023-04-05T18:32:18.677Z,9.57
2023-04-05T18:34:47.010Z,11.13
2023-04-05T18:37:15.355Z,13.27
2023-04-05T18:39:43.786Z,12.30
2023-04-05T18:42:17.938Z,12.68
2023-04-05T18:44:48.146Z,8.85
2023-04-05T18:47:18.354Z,12.27
2023-04-05T18:49:48.589Z,11.45
2023-04-05T18:52:23.554Z,13.45
2023-04-05T18:54:58.454Z,9.10
2023-04-05T18:57:29.563Z,9.35
2023-04-05T19:00:01.844Z,13.48
2023-04-05T19:02:32.227Z,13.85
2023-04-05T19:05:02.490Z,13.52
2023-04-05T19:07:32.669Z,13.85
2023-04-05T19:10:02.882Z,13.85
2023-04-05T19:12:33.105Z,20.00
2023-04-05T19:15:03.874Z,13.27
2023-04-05T19:17:34.158Z,14.30
2023-04-05T19:20:05.591Z,15.27
2023-04-05T19:22:35.805Z,15.63
2023-04-05T19:25:06.645Z,17.85
2023-04-05T19:27:37.738Z,16.23
2023-04-05T19:30:09.354Z,15.93
2023-04-05T19:32:39.539Z,14.40
2023-04-05T19:35:10.461Z,13.45
2023-04-05T19:37:40.585Z,15.93
2023-04-05T19:40:12.413Z,17.60
2023-04-05T19:42:47.778Z,15.35
2023-04-05T19:45:32.603Z,15.98
2023-04-05T19:48:30.570Z,16.35
2023-04-05T19:51:02.093Z,15.45
2023-04-05T19:53:50.238Z,15.43
2023-04-05T19:56:31.258Z,17.77
2023-04-05T19:59:13.367Z,18.00
2023-04-05T20:01:47.537Z,16.92
2023-04-05T20:04:23.360Z,19.63
2023-04-05T20:06:56.117Z,16.63
2023-04-05T20:09:29.923Z,14.52
2023-04-05T20:12:04.802Z,18.38
2023-04-05T20:14:53.321Z,16.55
2023-04-05T20:17:27.922Z,13.27
2023-04-05T20:20:01.196Z,13.85
2023-04-05T20:22:33.035Z,14.48
2023-04-05T20:25:46.978Z,13.70
2023-04-05T20:28:34.741Z,12.88
2023-04-05T20:31:35.202Z,13.37
2023-04-05T20:34:26.566Z,16.08
2023-04-05T20:37:07.471Z,14.38
2023-04-05T20:39:37.832Z,15.48
2023-04-05T20:42:13.259Z,13.82
2023-04-05T20:44:44.091Z,13.95
2023-04-05T20:47:14.460Z,12.15
2023-04-05T20:49:47.654Z,13.27
2023-04-05T20:52:17.944Z,11.80
2023-04-05T20:54:49.997Z,11.82
2023-04-05T20:57:20.191Z,15.93
2023-04-05T20:59:50.624Z,14.43
2023-04-05T21:02:18.896Z,13.38
2023-04-05T21:04:49.533Z,14.18
2023-04-05T21:07:19.237Z,15.75
2023-04-05T21:09:47.940Z,11.43
2023-04-05T21:12:18.075Z,15.98
2023-04-05T21:14:48.239Z,12.93
2023-04-05T21:17:18.417Z,15.18
2023-04-05T21:19:48.692Z,12.82
2023-04-05T21:22:19.014Z,15.00
2023-04-05T21:24:49.171Z,11.15
2023-04-05T21:27:19.347Z,13.57
2023-04-05T21:29:49.527Z,16.23
2023-04-05T21:32:20.032Z,13.75
2023-04-05T21:34:50.283Z,15.27
2023-04-05T21:37:20.637Z,15.00
2023-04-05T21:39:50.950Z,15.85
2023-04-05T21:42:22.061Z,13.93
2023-04-05T21:44:52.282Z,18.58
2023-04-05T21:47:20.707Z,14.85
2023-04-05T21:49:49.619Z,14.82
2023-04-05T21:52:17.456Z,14.27
2023-04-05T21:54:46.330Z,17.30
2023-04-05T21:57:14.489Z,15.25
2023-04-05T21:59:42.810Z,16.85
2023-04-05T22:02:12.393Z,16.23
2023-04-05T22:04:42.565Z,16.38
2023-04-05T22:07:11.088Z,16.80
2023-04-05T22:09:39.569Z,16.20
2023-04-05T22:12:12.480Z,17.35
2023-04-05T22:14:43.116Z,18.13
2023-04-05T22:17:13.345Z,18.35
2023-04-05T22:19:44.024Z,13.32
2023-04-05T22:22:15.225Z,17.67
2023-04-05T22:24:45.541Z,16.67
2023-04-05T22:27:15.933Z,17.42
2023-04-05T22:29:48.511Z,15.70
2023-04-05T22:32:18.660Z,15.60
2023-04-05T22:34:49.090Z,17.90
2023-04-05T22:37:19.328Z,14.75
2023-04-05T22:39:49.496Z,16.55
2023-04-05T22:42:19.689Z,15.90
2023-04-05T22:44:50.276Z,19.38
2023-04-05T22:47:21.431Z,16.58
2023-04-05T22:49:52.075Z,17.95
2023-04-05T22:52:22.267Z,17.95
2023-04-05T22:54:52.529Z,18.88
2023-04-05T22:57:22.791Z,17.95
2023-04-05T22:59:53.066Z,19.25
2023-04-05T23:02:24.766Z,17.63
2023-04-05T23:04:56.138Z,19.50
2023-04-05T23:07:26.539Z,15.52
2023-04-05T23:09:56.768Z,18.83
2023-04-05T23:12:27.484Z,17.85
2023-04-05T23:14:58.496Z,16.35
2023-04-05T23:17:28.777Z,18.10
2023-04-05T23:19:59.051Z,17.85
2023-04-05T23:22:29.217Z,16.55
2023-04-05T23:25:01.601Z,14.38
2023-04-05T23:27:32.682Z,17.30
2023-04-05T23:30:02.983Z,14.02
2023-04-05T23:32:32.324Z,17.55
2023-04-05T23:35:02.814Z,17.63
2023-04-05T23:37:33.073Z,15.77
2023-04-05T23:40:05.101Z,15.73
2023-04-05T23:42:35.240Z,15.27
2023-04-05T23:45:09.029Z,14.40
2023-04-05T23:47:40.035Z,15.73
2023-04-05T23:50:10.620Z,15.38
2023-04-05T23:52:40.816Z,18.35
2023-04-05T23:55:11.275Z,16.08
2023-04-05T23:57:41.445Z,13.57
